sensor_id;sensor_type;location;lat;lon;timestamp;temperature;humidity
59007;DHT22;44792;52.760;6.726;2022-08-21T00:00:25;17.80;99.90
59007;DHT22;44792;52.760;6.726;2022-08-21T00:02:58;17.80;99.90
59007;DHT22;44792;52.760;6.726;2022-08-21T00:05:24;17.80;99.90
59007;DHT22;44792;52.760;6.726;2022-08-21T00:07:50;17.70;99.90
59007;DHT22;44792;52.760;6.726;2022-08-21T00:10:17;17.70;99.90
59007;DHT22;44792;52.760;6.726;2022-08-21T00:12:43;17.70;99.90
59007;DHT22;44792;52.760;6.726;2022-08-21T00:15:10;17.60;99.90
59007;DHT22;44792;52.760;6.726;2022-08-21T00:17:36;17.70;99.90
59007;DHT22;44792;52.760;6.726;2022-08-21T00:20:04;17.70;99.90
59007;DHT22;44792;52.760;6.726;2022-08-21T00:22:31;17.60;99.90
59007;DHT22;44792;52.760;6.726;2022-08-21T00:24:57;17.60;99.90
59007;DHT22;44792;52.760;6.726;2022-08-21T00:27:23;17.60;99.90
59007;DHT22;44792;52.760;6.726;2022-08-21T00:29:48;17.60;99.90
59007;DHT22;44792;52.760;6.726;2022-08-21T00:32:23;17.50;99.90
59007;DHT22;44792;52.760;6.726;2022-08-21T00:34:49;17.50;99.90
59007;DHT22;44792;52.760;6.726;2022-08-21T00:37:14;17.50;99.90
59007;DHT22;44792;52.760;6.726;2022-08-21T00:39:40;17.40;99.90
59007;DHT22;44792;52.760;6.726;2022-08-21T00:42:06;17.40;99.90
59007;DHT22;44792;52.760;6.726;2022-08-21T00:44:32;17.40;99.90
59007;DHT22;44792;52.760;6.726;2022-08-21T00:46:57;17.40;99.90
59007;DHT22;44792;52.760;6.726;2022-08-21T00:49:23;17.30;99.90
59007;DHT22;44792;52.760;6.726;2022-08-21T00:51:51;17.30;99.90
59007;DHT22;44792;52.760;6.726;2022-08-21T00:54:20;17.30;99.90
59007;DHT22;44792;52.760;6.726;2022-08-21T00:56:53;17.30;99.90
59007;DHT22;44792;52.760;6.726;2022-08-21T00:59:19;17.20;99.90
59007;DHT22;44792;52.760;6.726;2022-08-21T01:01:46;17.20;99.90
59007;DHT22;44792;52.760;6.726;2022-08-21T01:04:12;17.20;99.90
59007;DHT22;44792;52.760;6.726;2022-08-21T01:06:37;17.20;99.90
59007;DHT22;44792;52.760;6.726;2022-08-21T01:09:03;17.10;99.90
59007;DHT22;44792;52.760;6.726;2022-08-21T01:11:30;17.10;99.90
59007;DHT22;44792;52.760;6.726;2022-08-21T01:13:56;16.90;99.90
59007;DHT22;44792;52.760;6.726;2022-08-21T01:16:22;16.70;99.90
59007;DHT22;44792;52.760;6.726;2022-08-21T01:18:49;16.70;99.90
59007;DHT22;44792;52.760;6.726;2022-08-21T01:21:19;16.70;99.90
59007;DHT22;44792;52.760;6.726;2022-08-21T01:23:48;16.60;99.90
59007;DHT22;44792;52.760;6.726;2022-08-21T01:26:17;16.70;99.90
59007;DHT22;44792;52.760;6.726;2022-08-21T01:29:00;16.70;99.90
59007;DHT22;44792;52.760;6.726;2022-08-21T01:31:28;16.70;99.90
59007;DHT22;44792;52.760;6.726;2022-08-21T01:33:55;16.70;99.90
59007;DHT22;44792;52.760;6.726;2022-08-21T01:36:21;16.70;99.90
59007;DHT22;44792;52.760;6.726;2022-08-21T01:38:47;16.70;99.90
59007;DHT22;44792;52.760;6.726;2022-08-21T01:41:14;16.60;99.90
59007;DHT22;44792;52.760;6.726;2022-08-21T01:43:40;16.70;99.90
59007;DHT22;44792;52.760;6.726;2022-08-21T01:46:06;16.70;99.90
59007;DHT22;44792;52.760;6.726;2022-08-21T01:48:32;16.60;99.90
59007;DHT22;44792;52.760;6.726;2022-08-21T01:50:58;16.60;99.90
59007;DHT22;44792;52.760;6.726;2022-08-21T01:53:24;16.60;99.90
59007;DHT22;44792;52.760;6.726;2022-08-21T01:55:49;16.60;99.90
59007;DHT22;44792;52.760;6.726;2022-08-21T01:58:15;16.50;99.90
59007;DHT22;44792;52.760;6.726;2022-08-21T02:00:41;16.50;99.90
59007;DHT22;44792;52.760;6.726;2022-08-21T02:03:07;16.50;99.90
59007;DHT22;44792;52.760;6.726;2022-08-21T02:05:32;16.50;99.90
59007;DHT22;44792;52.760;6.726;2022-08-21T02:07:58;16.50;99.90
59007;DHT22;44792;52.760;6.726;2022-08-21T02:10:29;16.50;99.90
59007;DHT22;44792;52.760;6.726;2022-08-21T02:12:56;16.50;99.90
59007;DHT22;44792;52.760;6.726;2022-08-21T02:15:22;16.40;99.90
59007;DHT22;44792;52.760;6.726;2022-08-21T02:17:51;16.50;99.90
59007;DHT22;44792;52.760;6.726;2022-08-21T02:20:23;16.50;99.90
59007;DHT22;44792;52.760;6.726;2022-08-21T02:22:49;16.40;99.90
59007;DHT22;44792;52.760;6.726;2022-08-21T02:25:16;16.40;99.90
59007;DHT22;44792;52.760;6.726;2022-08-21T02:27:44;16.40;99.90
59007;DHT22;44792;52.760;6.726;2022-08-21T02:30:15;16.40;99.90
59007;DHT22;44792;52.760;6.726;2022-08-21T02:32:41;16.40;99.90
59007;DHT22;44792;52.760;6.726;2022-08-21T02:35:09;16.30;99.90
59007;DHT22;44792;52.760;6.726;2022-08-21T02:37:46;16.30;99.90
59007;DHT22;44792;52.760;6.726;2022-08-21T02:40:14;16.30;99.90
59007;DHT22;44792;52.760;6.726;2022-08-21T02:42:40;16.30;99.90
59007;DHT22;44792;52.760;6.726;2022-08-21T02:45:06;16.20;99.90
59007;DHT22;44792;52.760;6.726;2022-08-21T02:47:32;16.30;99.90
59007;DHT22;44792;52.760;6.726;2022-08-21T02:49:58;16.20;99.90
59007;DHT22;44792;52.760;6.726;2022-08-21T02:52:23;16.30;99.90
59007;DHT22;44792;52.760;6.726;2022-08-21T02:54:49;16.20;99.90
59007;DHT22;44792;52.760;6.726;2022-08-21T02:57:15;16.20;99.90
59007;DHT22;44792;52.760;6.726;2022-08-21T02:59:41;16.20;99.90
59007;DHT22;44792;52.760;6.726;2022-08-21T03:02:07;16.20;99.90
59007;DHT22;44792;52.760;6.726;2022-08-21T03:04:33;16.20;99.90
59007;DHT22;44792;52.760;6.726;2022-08-21T03:06:58;16.10;99.90
59007;DHT22;44792;52.760;6.726;2022-08-21T03:09:24;16.10;99.90
59007;DHT22;44792;52.760;6.726;2022-08-21T03:11:50;16.00;99.90
59007;DHT22;44792;52.760;6.726;2022-08-21T03:14:17;16.10;99.90
59007;DHT22;44792;52.760;6.726;2022-08-21T03:16:43;16.10;99.90
59007;DHT22;44792;52.760;6.726;2022-08-21T03:19:09;16.00;99.90
59007;DHT22;44792;52.760;6.726;2022-08-21T03:21:35;16.00;99.90
59007;DHT22;44792;52.760;6.726;2022-08-21T03:24:00;16.00;99.90
59007;DHT22;44792;52.760;6.726;2022-08-21T03:26:26;16.00;99.90
59007;DHT22;44792;52.760;6.726;2022-08-21T03:28:51;16.00;99.90
59007;DHT22;44792;52.760;6.726;2022-08-21T03:31:17;16.00;99.90
59007;DHT22;44792;52.760;6.726;2022-08-21T03:33:43;15.90;99.90
59007;DHT22;44792;52.760;6.726;2022-08-21T03:36:10;15.90;99.90
59007;DHT22;44792;52.760;6.726;2022-08-21T03:38:36;15.80;99.90
59007;DHT22;44792;52.760;6.726;2022-08-21T03:41:03;15.80;99.90
59007;DHT22;44792;52.760;6.726;2022-08-21T03:43:29;15.80;99.90
59007;DHT22;44792;52.760;6.726;2022-08-21T03:45:55;15.70;99.90
59007;DHT22;44792;52.760;6.726;2022-08-21T03:48:20;15.40;99.90
59007;DHT22;44792;52.760;6.726;2022-08-21T03:50:46;15.30;99.90
59007;DHT22;44792;52.760;6.726;2022-08-21T03:53:14;15.20;99.90
59007;DHT22;44792;52.760;6.726;2022-08-21T03:55:40;15.20;99.90
59007;DHT22;44792;52.760;6.726;2022-08-21T03:58:07;15.40;99.90
59007;DHT22;44792;52.760;6.726;2022-08-21T04:00:32;15.40;99.90
59007;DHT22;44792;52.760;6.726;2022-08-21T04:02:58;15.40;99.90
59007;DHT22;44792;52.760;6.726;2022-08-21T04:05:24;15.40;99.90
59007;DHT22;44792;52.760;6.726;2022-08-21T04:07:57;15.50;99.90
59007;DHT22;44792;52.760;6.726;2022-08-21T04:10:24;15.50;99.90
59007;DHT22;44792;52.760;6.726;2022-08-21T04:12:50;15.40;99.90
59007;DHT22;44792;52.760;6.726;2022-08-21T04:15:16;15.40;99.90
59007;DHT22;44792;52.760;6.726;2022-08-21T04:17:42;15.30;99.90
59007;DHT22;44792;52.760;6.726;2022-08-21T04:20:08;15.20;99.90
59007;DHT22;44792;52.760;6.726;2022-08-21T04:22:34;15.30;99.90
59007;DHT22;44792;52.760;6.726;2022-08-21T04:24:59;15.40;99.90
59007;DHT22;44792;52.760;6.726;2022-08-21T04:27:25;15.40;99.90
59007;DHT22;44792;52.760;6.726;2022-08-21T04:29:50;15.30;99.90
59007;DHT22;44792;52.760;6.726;2022-08-21T04:32:23;15.30;99.90
59007;DHT22;44792;52.760;6.726;2022-08-21T04:34:49;15.40;99.90
59007;DHT22;44792;52.760;6.726;2022-08-21T04:37:15;15.40;99.90
59007;DHT22;44792;52.760;6.726;2022-08-21T04:39:41;15.40;99.90
59007;DHT22;44792;52.760;6.726;2022-08-21T04:42:07;15.40;99.90
59007;DHT22;44792;52.760;6.726;2022-08-21T04:44:34;15.40;99.90
59007;DHT22;44792;52.760;6.726;2022-08-21T04:47:00;15.40;99.90
59007;DHT22;44792;52.760;6.726;2022-08-21T04:49:25;15.30;99.90
59007;DHT22;44792;52.760;6.726;2022-08-21T04:51:51;15.50;99.90
59007;DHT22;44792;52.760;6.726;2022-08-21T04:54:19;15.40;99.90
59007;DHT22;44792;52.760;6.726;2022-08-21T04:56:53;15.40;99.90
59007;DHT22;44792;52.760;6.726;2022-08-21T04:59:24;15.40;99.90
59007;DHT22;44792;52.760;6.726;2022-08-21T05:01:50;15.40;99.90
59007;DHT22;44792;52.760;6.726;2022-08-21T05:04:21;15.40;99.90
59007;DHT22;44792;52.760;6.726;2022-08-21T05:06:48;15.50;99.90
59007;DHT22;44792;52.760;6.726;2022-08-21T05:09:17;15.50;99.90
59007;DHT22;44792;52.760;6.726;2022-08-21T05:11:43;15.50;99.90
59007;DHT22;44792;52.760;6.726;2022-08-21T05:14:10;15.50;99.90
59007;DHT22;44792;52.760;6.726;2022-08-21T05:16:36;15.60;99.90
59007;DHT22;44792;52.760;6.726;2022-08-21T05:19:02;15.70;99.90
59007;DHT22;44792;52.760;6.726;2022-08-21T05:21:27;15.80;99.90
59007;DHT22;44792;52.760;6.726;2022-08-21T05:23:53;15.80;99.90
59007;DHT22;44792;52.760;6.726;2022-08-21T05:26:19;16.00;99.90
59007;DHT22;44792;52.760;6.726;2022-08-21T05:28:44;16.10;99.90
59007;DHT22;44792;52.760;6.726;2022-08-21T05:31:10;16.20;99.90
59007;DHT22;44792;52.760;6.726;2022-08-21T05:33:35;16.30;99.90
59007;DHT22;44792;52.760;6.726;2022-08-21T05:36:01;16.40;99.90
59007;DHT22;44792;52.760;6.726;2022-08-21T05:38:27;16.50;99.90
59007;DHT22;44792;52.760;6.726;2022-08-21T05:40:54;16.60;99.90
59007;DHT22;44792;52.760;6.726;2022-08-21T05:43:19;16.70;99.90
59007;DHT22;44792;52.760;6.726;2022-08-21T05:45:45;16.70;99.90
59007;DHT22;44792;52.760;6.726;2022-08-21T05:48:14;16.90;99.90
59007;DHT22;44792;52.760;6.726;2022-08-21T05:50:41;17.00;99.90
59007;DHT22;44792;52.760;6.726;2022-08-21T05:53:07;17.00;99.90
59007;DHT22;44792;52.760;6.726;2022-08-21T05:55:32;17.00;99.90
59007;DHT22;44792;52.760;6.726;2022-08-21T05:57:58;17.10;99.90
59007;DHT22;44792;52.760;6.726;2022-08-21T06:00:24;17.10;99.90
59007;DHT22;44792;52.760;6.726;2022-08-21T06:02:50;17.20;99.90
59007;DHT22;44792;52.760;6.726;2022-08-21T06:05:17;17.30;99.90
59007;DHT22;44792;52.760;6.726;2022-08-21T06:07:43;17.40;99.90
59007;DHT22;44792;52.760;6.726;2022-08-21T06:10:08;17.40;99.90
59007;DHT22;44792;52.760;6.726;2022-08-21T06:12:34;17.50;99.90
59007;DHT22;44792;52.760;6.726;2022-08-21T06:14:59;17.50;99.90
59007;DHT22;44792;52.760;6.726;2022-08-21T06:17:25;17.60;99.90
59007;DHT22;44792;52.760;6.726;2022-08-21T06:19:52;17.60;99.90
59007;DHT22;44792;52.760;6.726;2022-08-21T06:22:18;17.80;99.90
59007;DHT22;44792;52.760;6.726;2022-08-21T06:24:43;17.80;99.90
59007;DHT22;44792;52.760;6.726;2022-08-21T06:27:09;17.90;99.90
59007;DHT22;44792;52.760;6.726;2022-08-21T06:29:35;18.00;99.90
59007;DHT22;44792;52.760;6.726;2022-08-21T06:32:01;18.00;99.90
59007;DHT22;44792;52.760;6.726;2022-08-21T06:34:28;18.10;99.90
59007;DHT22;44792;52.760;6.726;2022-08-21T06:36:53;18.20;99.90
59007;DHT22;44792;52.760;6.726;2022-08-21T06:39:19;18.30;99.90
59007;DHT22;44792;52.760;6.726;2022-08-21T06:41:44;18.30;99.90
59007;DHT22;44792;52.760;6.726;2022-08-21T06:44:10;18.40;99.90
59007;DHT22;44792;52.760;6.726;2022-08-21T06:46:36;18.40;99.90
59007;DHT22;44792;52.760;6.726;2022-08-21T06:49:02;18.50;99.90
59007;DHT22;44792;52.760;6.726;2022-08-21T06:51:28;18.50;99.90
59007;DHT22;44792;52.760;6.726;2022-08-21T06:53:53;18.60;99.90
59007;DHT22;44792;52.760;6.726;2022-08-21T06:56:19;18.60;99.90
59007;DHT22;44792;52.760;6.726;2022-08-21T06:58:45;18.60;99.90
59007;DHT22;44792;52.760;6.726;2022-08-21T07:01:10;18.60;99.90
59007;DHT22;44792;52.760;6.726;2022-08-21T07:03:38;18.70;99.90
59007;DHT22;44792;52.760;6.726;2022-08-21T07:06:06;18.70;99.90
59007;DHT22;44792;52.760;6.726;2022-08-21T07:08:32;18.70;99.90
59007;DHT22;44792;52.760;6.726;2022-08-21T07:10:59;18.70;99.90
59007;DHT22;44792;52.760;6.726;2022-08-21T07:13:26;18.70;99.90
59007;DHT22;44792;52.760;6.726;2022-08-21T07:15:52;18.70;99.90
59007;DHT22;44792;52.760;6.726;2022-08-21T07:18:17;18.70;99.90
59007;DHT22;44792;52.760;6.726;2022-08-21T07:20:43;18.70;99.90
59007;DHT22;44792;52.760;6.726;2022-08-21T07:23:11;18.70;99.90
59007;DHT22;44792;52.760;6.726;2022-08-21T07:25:38;18.80;99.90
59007;DHT22;44792;52.760;6.726;2022-08-21T07:28:03;18.80;99.90
59007;DHT22;44792;52.760;6.726;2022-08-21T07:30:29;18.90;99.90
59007;DHT22;44792;52.760;6.726;2022-08-21T07:32:55;19.00;99.90
59007;DHT22;44792;52.760;6.726;2022-08-21T07:35:21;19.10;99.90
59007;DHT22;44792;52.760;6.726;2022-08-21T07:37:47;19.00;99.90
59007;DHT22;44792;52.760;6.726;2022-08-21T07:40:14;19.10;99.90
59007;DHT22;44792;52.760;6.726;2022-08-21T07:42:45;19.20;99.90
59007;DHT22;44792;52.760;6.726;2022-08-21T07:45:12;19.30;99.90
59007;DHT22;44792;52.760;6.726;2022-08-21T07:47:38;19.30;99.90
59007;DHT22;44792;52.760;6.726;2022-08-21T07:50:05;19.40;99.90
59007;DHT22;44792;52.760;6.726;2022-08-21T07:52:31;19.30;99.90
59007;DHT22;44792;52.760;6.726;2022-08-21T07:54:58;19.40;99.90
59007;DHT22;44792;52.760;6.726;2022-08-21T07:57:23;19.50;99.90
59007;DHT22;44792;52.760;6.726;2022-08-21T07:59:49;19.60;99.90
59007;DHT22;44792;52.760;6.726;2022-08-21T08:02:23;19.60;99.90
59007;DHT22;44792;52.760;6.726;2022-08-21T08:04:48;19.60;99.90
59007;DHT22;44792;52.760;6.726;2022-08-21T08:07:15;19.60;99.90
59007;DHT22;44792;52.760;6.726;2022-08-21T08:09:40;19.70;99.90
59007;DHT22;44792;52.760;6.726;2022-08-21T08:12:06;19.60;99.90
59007;DHT22;44792;52.760;6.726;2022-08-21T08:14:31;19.70;99.90
59007;DHT22;44792;52.760;6.726;2022-08-21T08:16:57;19.80;99.90
59007;DHT22;44792;52.760;6.726;2022-08-21T08:19:23;19.80;99.90
59007;DHT22;44792;52.760;6.726;2022-08-21T08:21:49;19.90;99.90
59007;DHT22;44792;52.760;6.726;2022-08-21T08:24:15;20.00;99.90
59007;DHT22;44792;52.760;6.726;2022-08-21T08:26:40;20.00;99.90
59007;DHT22;44792;52.760;6.726;2022-08-21T08:29:06;20.00;99.90
59007;DHT22;44792;52.760;6.726;2022-08-21T08:31:31;20.00;99.90
59007;DHT22;44792;52.760;6.726;2022-08-21T08:33:57;20.10;99.90
59007;DHT22;44792;52.760;6.726;2022-08-21T08:36:32;20.20;99.90
59007;DHT22;44792;52.760;6.726;2022-08-21T08:38:57;20.20;99.90
59007;DHT22;44792;52.760;6.726;2022-08-21T08:41:23;20.30;99.90
59007;DHT22;44792;52.760;6.726;2022-08-21T08:43:54;20.30;99.90
59007;DHT22;44792;52.760;6.726;2022-08-21T08:46:29;20.50;99.90
59007;DHT22;44792;52.760;6.726;2022-08-21T08:49:02;20.50;99.90
59007;DHT22;44792;52.760;6.726;2022-08-21T08:54:38;20.60;99.90
59007;DHT22;44792;52.760;6.726;2022-08-21T08:57:14;20.80;99.90
59007;DHT22;44792;52.760;6.726;2022-08-21T08:59:43;20.70;99.90
59007;DHT22;44792;52.760;6.726;2022-08-21T09:02:11;20.80;99.90
59007;DHT22;44792;52.760;6.726;2022-08-21T09:04:37;20.80;99.90
59007;DHT22;44792;52.760;6.726;2022-08-21T09:07:33;21.00;99.90
59007;DHT22;44792;52.760;6.726;2022-08-21T09:10:22;21.10;99.90
59007;DHT22;44792;52.760;6.726;2022-08-21T09:13:07;21.20;99.90
59007;DHT22;44792;52.760;6.726;2022-08-21T09:16:05;21.10;99.90
59007;DHT22;44792;52.760;6.726;2022-08-21T09:21:43;21.10;99.90
59007;DHT22;44792;52.760;6.726;2022-08-21T09:27:11;21.10;99.90
59007;DHT22;44792;52.760;6.726;2022-08-21T09:29:41;21.10;99.90
59007;DHT22;44792;52.760;6.726;2022-08-21T09:32:19;21.10;99.90
59007;DHT22;44792;52.760;6.726;2022-08-21T09:37:24;21.30;99.90
59007;DHT22;44792;52.760;6.726;2022-08-21T09:39:50;21.30;99.90
59007;DHT22;44792;52.760;6.726;2022-08-21T09:42:25;21.30;99.90
59007;DHT22;44792;52.760;6.726;2022-08-21T09:45:10;21.20;99.90
59007;DHT22;44792;52.760;6.726;2022-08-21T09:47:36;21.40;99.90
59007;DHT22;44792;52.760;6.726;2022-08-21T09:50:12;21.50;99.90
59007;DHT22;44792;52.760;6.726;2022-08-21T09:52:51;21.50;99.90
59007;DHT22;44792;52.760;6.726;2022-08-21T09:55:30;21.60;99.90
59007;DHT22;44792;52.760;6.726;2022-08-21T09:58:20;21.60;99.90
59007;DHT22;44792;52.760;6.726;2022-08-21T10:00:57;21.70;99.90
59007;DHT22;44792;52.760;6.726;2022-08-21T10:03:23;21.70;99.90
59007;DHT22;44792;52.760;6.726;2022-08-21T10:06:05;21.90;99.90
59007;DHT22;44792;52.760;6.726;2022-08-21T10:08:35;21.90;99.90
59007;DHT22;44792;52.760;6.726;2022-08-21T10:11:10;21.90;99.90
59007;DHT22;44792;52.760;6.726;2022-08-21T10:22:30;22.10;99.90
59007;DHT22;44792;52.760;6.726;2022-08-21T10:25:08;22.10;99.90
59007;DHT22;44792;52.760;6.726;2022-08-21T10:30:18;22.10;99.90
59007;DHT22;44792;52.760;6.726;2022-08-21T10:33:12;22.00;99.90
59007;DHT22;44792;52.760;6.726;2022-08-21T10:35:45;22.00;99.90
59007;DHT22;44792;52.760;6.726;2022-08-21T10:41:14;22.10;99.90
59007;DHT22;44792;52.760;6.726;2022-08-21T10:44:23;22.10;99.90
59007;DHT22;44792;52.760;6.726;2022-08-21T10:47:02;22.10;99.90
59007;DHT22;44792;52.760;6.726;2022-08-21T10:54:50;22.40;99.90
59007;DHT22;44792;52.760;6.726;2022-08-21T11:00:42;22.50;99.90
59007;DHT22;44792;52.760;6.726;2022-08-21T11:03:35;22.60;99.90
59007;DHT22;44792;52.760;6.726;2022-08-21T11:06:27;22.70;99.90
59007;DHT22;44792;52.760;6.726;2022-08-21T11:09:06;22.80;99.90
59007;DHT22;44792;52.760;6.726;2022-08-21T11:11:39;22.90;99.90
59007;DHT22;44792;52.760;6.726;2022-08-21T11:17:05;23.00;99.90
59007;DHT22;44792;52.760;6.726;2022-08-21T11:22:15;23.00;99.90
59007;DHT22;44792;52.760;6.726;2022-08-21T11:24:59;23.10;99.90
59007;DHT22;44792;52.760;6.726;2022-08-21T11:27:52;23.10;99.90
59007;DHT22;44792;52.760;6.726;2022-08-21T11:30:19;23.00;99.90
59007;DHT22;44792;52.760;6.726;2022-08-21T11:33:22;23.00;99.90
59007;DHT22;44792;52.760;6.726;2022-08-21T11:36:06;23.00;99.90
59007;DHT22;44792;52.760;6.726;2022-08-21T11:38:37;23.10;99.90
59007;DHT22;44792;52.760;6.726;2022-08-21T11:41:32;23.00;99.90
59007;DHT22;44792;52.760;6.726;2022-08-21T11:44:23;23.10;99.90
59007;DHT22;44792;52.760;6.726;2022-08-21T11:50:17;23.30;99.90
59007;DHT22;44792;52.760;6.726;2022-08-21T11:52:56;23.30;99.90
59007;DHT22;44792;52.760;6.726;2022-08-21T11:58:05;23.40;99.90
59007;DHT22;44792;52.760;6.726;2022-08-21T12:00:36;23.40;99.90
59007;DHT22;44792;52.760;6.726;2022-08-21T12:03:16;23.50;99.90
59007;DHT22;44792;52.760;6.726;2022-08-21T12:05:56;23.80;99.90
59007;DHT22;44792;52.760;6.726;2022-08-21T12:08:30;23.80;99.90
59007;DHT22;44792;52.760;6.726;2022-08-21T12:11:22;23.80;99.90
59007;DHT22;44792;52.760;6.726;2022-08-21T12:14:15;23.80;99.90
59007;DHT22;44792;52.760;6.726;2022-08-21T12:16:46;24.00;99.90
59007;DHT22;44792;52.760;6.726;2022-08-21T12:27:13;24.00;99.90
59007;DHT22;44792;52.760;6.726;2022-08-21T12:29:49;24.10;99.90
59007;DHT22;44792;52.760;6.726;2022-08-21T12:34:46;24.10;99.90
59007;DHT22;44792;52.760;6.726;2022-08-21T12:37:29;24.00;99.90
59007;DHT22;44792;52.760;6.726;2022-08-21T12:39:59;24.20;99.90
59007;DHT22;44792;52.760;6.726;2022-08-21T12:42:38;24.30;99.90
59007;DHT22;44792;52.760;6.726;2022-08-21T12:47:51;24.30;99.90
59007;DHT22;44792;52.760;6.726;2022-08-21T12:50:31;24.30;99.90
59007;DHT22;44792;52.760;6.726;2022-08-21T12:55:51;24.30;99.90
59007;DHT22;44792;52.760;6.726;2022-08-21T12:58:24;24.20;99.90
59007;DHT22;44792;52.760;6.726;2022-08-21T13:01:03;24.20;99.90
59007;DHT22;44792;52.760;6.726;2022-08-21T13:03:31;24.40;99.90
59007;DHT22;44792;52.760;6.726;2022-08-21T13:06:02;24.40;99.90
59007;DHT22;44792;52.760;6.726;2022-08-21T13:08:29;24.50;99.90
59007;DHT22;44792;52.760;6.726;2022-08-21T13:11:00;24.60;99.90
59007;DHT22;44792;52.760;6.726;2022-08-21T13:13:27;24.60;99.90
59007;DHT22;44792;52.760;6.726;2022-08-21T13:16:03;24.50;99.90
59007;DHT22;44792;52.760;6.726;2022-08-21T13:18:33;24.60;99.90
59007;DHT22;44792;52.760;6.726;2022-08-21T13:21:09;24.50;99.90
59007;DHT22;44792;52.760;6.726;2022-08-21T13:23:35;24.40;99.90
59007;DHT22;44792;52.760;6.726;2022-08-21T13:26:01;24.30;99.90
59007;DHT22;44792;52.760;6.726;2022-08-21T13:28:35;24.30;99.90
59007;DHT22;44792;52.760;6.726;2022-08-21T13:31:07;24.30;99.90
59007;DHT22;44792;52.760;6.726;2022-08-21T13:33:36;24.30;99.90
59007;DHT22;44792;52.760;6.726;2022-08-21T13:36:04;24.40;99.90
59007;DHT22;44792;52.760;6.726;2022-08-21T13:38:34;24.50;99.90
59007;DHT22;44792;52.760;6.726;2022-08-21T13:43:36;24.50;99.90
59007;DHT22;44792;52.760;6.726;2022-08-21T13:46:08;24.50;99.90
59007;DHT22;44792;52.760;6.726;2022-08-21T13:48:35;24.60;99.90
59007;DHT22;44792;52.760;6.726;2022-08-21T13:51:02;24.60;99.90
59007;DHT22;44792;52.760;6.726;2022-08-21T13:53:32;24.60;99.90
59007;DHT22;44792;52.760;6.726;2022-08-21T13:55:59;24.60;99.90
59007;DHT22;44792;52.760;6.726;2022-08-21T13:58:41;24.70;99.90
59007;DHT22;44792;52.760;6.726;2022-08-21T14:01:22;24.80;99.90
59007;DHT22;44792;52.760;6.726;2022-08-21T14:03:49;24.90;99.90
59007;DHT22;44792;52.760;6.726;2022-08-21T14:06:19;24.90;99.90
59007;DHT22;44792;52.760;6.726;2022-08-21T14:11:57;24.80;99.90
59007;DHT22;44792;52.760;6.726;2022-08-21T14:14:34;24.90;99.90
59007;DHT22;44792;52.760;6.726;2022-08-21T14:17:13;24.90;99.90
59007;DHT22;44792;52.760;6.726;2022-08-21T14:19:41;24.90;99.90
59007;DHT22;44792;52.760;6.726;2022-08-21T14:22:28;25.00;99.90
59007;DHT22;44792;52.760;6.726;2022-08-21T14:25:06;25.00;99.90
59007;DHT22;44792;52.760;6.726;2022-08-21T14:28:24;25.00;99.90
59007;DHT22;44792;52.760;6.726;2022-08-21T14:30:28;25.00;99.90
59007;DHT22;44792;52.760;6.726;2022-08-21T14:32:54;24.90;99.90
59007;DHT22;44792;52.760;6.726;2022-08-21T14:35:23;24.80;99.90
59007;DHT22;44792;52.760;6.726;2022-08-21T14:37:49;24.80;99.90
59007;DHT22;44792;52.760;6.726;2022-08-21T14:40:20;24.80;99.90
59007;DHT22;44792;52.760;6.726;2022-08-21T14:42:46;24.70;99.90
59007;DHT22;44792;52.760;6.726;2022-08-21T14:45:26;24.80;99.90
59007;DHT22;44792;52.760;6.726;2022-08-21T14:47:52;24.80;99.90
59007;DHT22;44792;52.760;6.726;2022-08-21T14:50:18;24.80;99.90
59007;DHT22;44792;52.760;6.726;2022-08-21T14:52:44;24.70;99.90
59007;DHT22;44792;52.760;6.726;2022-08-21T14:55:13;24.70;99.90
59007;DHT22;44792;52.760;6.726;2022-08-21T14:57:51;24.70;99.90
59007;DHT22;44792;52.760;6.726;2022-08-21T15:00:20;24.70;99.90
59007;DHT22;44792;52.760;6.726;2022-08-21T15:02:48;24.80;99.90
59007;DHT22;44792;52.760;6.726;2022-08-21T15:05:14;24.90;99.90
59007;DHT22;44792;52.760;6.726;2022-08-21T15:07:40;24.90;99.90
59007;DHT22;44792;52.760;6.726;2022-08-21T15:10:07;24.80;99.90
59007;DHT22;44792;52.760;6.726;2022-08-21T15:12:33;24.70;99.90
59007;DHT22;44792;52.760;6.726;2022-08-21T15:14:58;24.90;99.90
59007;DHT22;44792;52.760;6.726;2022-08-21T15:17:25;25.10;99.90
59007;DHT22;44792;52.760;6.726;2022-08-21T15:19:50;24.90;99.90
59007;DHT22;44792;52.760;6.726;2022-08-21T15:22:16;24.70;99.90
59007;DHT22;44792;52.760;6.726;2022-08-21T15:24:42;24.60;99.90
59007;DHT22;44792;52.760;6.726;2022-08-21T15:27:09;24.60;99.90
59007;DHT22;44792;52.760;6.726;2022-08-21T15:29:35;24.50;99.90
59007;DHT22;44792;52.760;6.726;2022-08-21T15:32:16;24.70;99.90
59007;DHT22;44792;52.760;6.726;2022-08-21T15:34:43;24.60;99.90
59007;DHT22;44792;52.760;6.726;2022-08-21T15:37:08;24.60;99.90
59007;DHT22;44792;52.760;6.726;2022-08-21T15:39:35;24.70;99.90
59007;DHT22;44792;52.760;6.726;2022-08-21T15:42:01;24.50;99.90
59007;DHT22;44792;52.760;6.726;2022-08-21T15:44:28;24.50;99.90
59007;DHT22;44792;52.760;6.726;2022-08-21T15:46:55;24.20;99.90
59007;DHT22;44792;52.760;6.726;2022-08-21T15:49:21;24.40;99.90
59007;DHT22;44792;52.760;6.726;2022-08-21T15:51:46;24.10;99.90
59007;DHT22;44792;52.760;6.726;2022-08-21T15:54:12;24.20;99.90
59007;DHT22;44792;52.760;6.726;2022-08-21T15:56:39;24.20;99.90
59007;DHT22;44792;52.760;6.726;2022-08-21T15:59:08;24.20;99.90
59007;DHT22;44792;52.760;6.726;2022-08-21T16:01:37;24.10;99.90
59007;DHT22;44792;52.760;6.726;2022-08-21T16:04:04;24.10;99.90
59007;DHT22;44792;52.760;6.726;2022-08-21T16:06:30;24.30;99.90
59007;DHT22;44792;52.760;6.726;2022-08-21T16:08:56;24.20;99.90
59007;DHT22;44792;52.760;6.726;2022-08-21T16:11:21;24.10;99.90
59007;DHT22;44792;52.760;6.726;2022-08-21T16:13:48;24.10;99.90
59007;DHT22;44792;52.760;6.726;2022-08-21T16:16:20;24.40;99.90
59007;DHT22;44792;52.760;6.726;2022-08-21T16:18:46;24.40;99.90
59007;DHT22;44792;52.760;6.726;2022-08-21T16:21:12;24.30;99.90
59007;DHT22;44792;52.760;6.726;2022-08-21T16:23:38;24.20;99.90
59007;DHT22;44792;52.760;6.726;2022-08-21T16:26:07;24.20;99.90
59007;DHT22;44792;52.760;6.726;2022-08-21T16:28:35;24.10;99.90
59007;DHT22;44792;52.760;6.726;2022-08-21T16:31:01;24.20;99.90
59007;DHT22;44792;52.760;6.726;2022-08-21T16:33:32;24.10;99.90
59007;DHT22;44792;52.760;6.726;2022-08-21T16:35:58;24.20;99.90
59007;DHT22;44792;52.760;6.726;2022-08-21T16:38:28;24.10;99.90
59007;DHT22;44792;52.760;6.726;2022-08-21T16:40:54;23.90;99.90
59007;DHT22;44792;52.760;6.726;2022-08-21T16:43:24;23.90;99.90
59007;DHT22;44792;52.760;6.726;2022-08-21T16:45:51;23.90;99.90
59007;DHT22;44792;52.760;6.726;2022-08-21T16:48:17;23.70;99.90
59007;DHT22;44792;52.760;6.726;2022-08-21T16:50:43;23.70;99.90